MSC Maria Saveria — 3FLE8 — position and weather

sailwx.info

Track history (hours):
 
Tides and Currents Weather Stations Pressure Air Temp Water Temp Dewpoint Dewpoint Depression Visibility Wind Speed Wind Dir Waves Ship Positions

MSC Maria Saveria

Last reported at 2015-Mar-03 22:33 UTC. Time now 2015-Mar-03 22:41 UTC.
Position N 01°17' E 103°56'.

Length 366 m; draft 15.6 m.

Type: Ship (hazmat cat A). MMSI: 372400000.

Date/timePositionNaut miles runAvg speedWind from/ knotsBaromVisibWave heightAir tempDewpointWater temp
2015-Mar-03 22:33N 01°17' E 103°56'0 0.0
2015-Mar-03 21:17N 01°17' E 103°56'0 0.0
2015-Mar-03 20:09N 01°17' E 103°56'0 0.0
2015-Mar-03 19:29N 01°17' E 103°56'0 0.0
2015-Mar-03 18:33N 01°17' E 103°56'0 0.0
2015-Mar-03 17:31N 01°17' E 103°56'0 0.0
2015-Mar-03 16:33N 01°17' E 103°56'0 0.0
2015-Mar-03 15:33N 01°17' E 103°56'2 2.0
2015-Mar-03 14:33N 01°15' E 103°56'8 8.1
2015-Mar-03 13:32N 01°13' E 103°48'4 3.3
2015-Mar-03 12:19N 01°16' E 103°46'0 0.0
2015-Mar-03 11:13N 01°16' E 103°46'0 0.0
2015-Mar-03 10:16N 01°16' E 103°46'0 0.0
2015-Mar-03 09:28N 01°16' E 103°46'0 0.0
2015-Mar-03 08:28N 01°16' E 103°46'0 0.0
2015-Mar-03 07:31N 01°16' E 103°46'0 0.0
2015-Mar-03 06:28N 01°16' E 103°46'0 0.0
2015-Mar-03 04:28N 01°16' E 103°46'0 0.0
2015-Mar-03 01:28N 01°16' E 103°46'0 0.0
2015-Mar-03 00:28N 01°16' E 103°46'0 0.0
2015-Mar-02 23:10N 01°16' E 103°46'0 0.0
2015-Mar-02 22:04N 01°16' E 103°46'0 0.0
2015-Mar-02 21:28N 01°16' E 103°46'0 0.0
2015-Mar-02 20:28N 01°16' E 103°46'0 0.0
2015-Mar-02 19:28N 01°16' E 103°46'0 0.0
2015-Mar-02 18:31N 01°16' E 103°46'0 0.0
2015-Mar-02 17:22N 01°16' E 103°46'0 0.0
2015-Mar-02 16:28N 01°16' E 103°46'0 0.0
2015-Mar-02 15:31N 01°16' E 103°46'0 0.0
2015-Mar-02 14:07N 01°16' E 103°46'0 0.0
2015-Mar-02 13:28N 01°16' E 103°46'0 0.0
2015-Mar-02 11:28N 01°16' E 103°46'0 0.0
2015-Mar-02 10:16N 01°16' E 103°46'0 0.0
2015-Mar-02 09:28N 01°16' E 103°46'0 0.0
2015-Mar-02 08:25N 01°16' E 103°46'0 0.0
2015-Mar-02 07:28N 01°16' E 103°46'0 0.0
2015-Mar-02 06:22N 01°16' E 103°46'0 0.0
2015-Mar-02 05:19N 01°16' E 103°46'0 0.0
2015-Mar-02 03:28N 01°16' E 103°46'0 0.0
2015-Mar-02 02:28N 01°16' E 103°46'0 0.0
2015-Mar-02 01:28N 01°16' E 103°46'0 0.0
2015-Mar-02 00:28N 01°16' E 103°46'0 0.0
2015-Mar-01 23:33N 01°16' E 103°46'1 1.0
2015-Mar-01 22:33N 01°15' E 103°46'4 3.6
2015-Mar-01 21:33N 01°14' E 103°43'  
Track history (hours):
 
Tides and Currents Weather Stations Pressure Air Temp Water Temp Dewpoint Dewpoint Depression Visibility Wind Speed Wind Dir Waves Ship Positions

MSC Maria Saveria

Last reported at 2015-Mar-03 22:33 UTC. Time now 2015-Mar-03 22:41 UTC.
Position N 01°17' E 103°56'.

Length 366 m; draft 15.6 m.

Type: Ship (hazmat cat A). MMSI: 372400000.

Date/timePositionNaut miles runAvg speedWind from/ knotsBaromVisibWave heightAir tempDewpointWater temp
2015-Mar-03 22:33N 01°17' E 103°56'0 0.0
2015-Mar-03 21:17N 01°17' E 103°56'0 0.0
2015-Mar-03 20:09N 01°17' E 103°56'0 0.0
2015-Mar-03 19:29N 01°17' E 103°56'0 0.0
2015-Mar-03 18:33N 01°17' E 103°56'0 0.0
2015-Mar-03 17:31N 01°17' E 103°56'0 0.0
2015-Mar-03 16:33N 01°17' E 103°56'0 0.0
2015-Mar-03 15:33N 01°17' E 103°56'2 2.0
2015-Mar-03 14:33N 01°15' E 103°56'8 8.1
2015-Mar-03 13:32N 01°13' E 103°48'4 3.3
2015-Mar-03 12:19N 01°16' E 103°46'0 0.0
2015-Mar-03 11:13N 01°16' E 103°46'0 0.0
2015-Mar-03 10:16N 01°16' E 103°46'0 0.0
2015-Mar-03 09:28N 01°16' E 103°46'0 0.0
2015-Mar-03 08:28N 01°16' E 103°46'0 0.0
2015-Mar-03 07:31N 01°16' E 103°46'0 0.0
2015-Mar-03 06:28N 01°16' E 103°46'0 0.0
2015-Mar-03 04:28N 01°16' E 103°46'0 0.0
2015-Mar-03 01:28N 01°16' E 103°46'0 0.0
2015-Mar-03 00:28N 01°16' E 103°46'0 0.0
2015-Mar-02 23:10N 01°16' E 103°46'0 0.0
2015-Mar-02 22:04N 01°16' E 103°46'0 0.0
2015-Mar-02 21:28N 01°16' E 103°46'0 0.0
2015-Mar-02 20:28N 01°16' E 103°46'0 0.0
2015-Mar-02 19:28N 01°16' E 103°46'0 0.0
2015-Mar-02 18:31N 01°16' E 103°46'0 0.0
2015-Mar-02 17:22N 01°16' E 103°46'0 0.0
2015-Mar-02 16:28N 01°16' E 103°46'0 0.0
2015-Mar-02 15:31N 01°16' E 103°46'0 0.0
2015-Mar-02 14:07N 01°16' E 103°46'0 0.0
2015-Mar-02 13:28N 01°16' E 103°46'0 0.0
2015-Mar-02 11:28N 01°16' E 103°46'0 0.0
2015-Mar-02 10:16N 01°16' E 103°46'0 0.0
2015-Mar-02 09:28N 01°16' E 103°46'0 0.0
2015-Mar-02 08:25N 01°16' E 103°46'0 0.0
2015-Mar-02 07:28N 01°16' E 103°46'0 0.0
2015-Mar-02 06:22N 01°16' E 103°46'0 0.0
2015-Mar-02 05:19N 01°16' E 103°46'0 0.0
2015-Mar-02 03:28N 01°16' E 103°46'0 0.0
2015-Mar-02 02:28N 01°16' E 103°46'0 0.0
2015-Mar-02 01:28N 01°16' E 103°46'0 0.0
2015-Mar-02 00:28N 01°16' E 103°46'0 0.0
2015-Mar-01 23:33N 01°16' E 103°46'1 1.0
2015-Mar-01 22:33N 01°15' E 103°46'4 3.6
2015-Mar-01 21:33N 01°14' E 103°43'  

Dump ship's entire track history